Aviation Digital Data Service (ADDS)

Output produced by METARs form (0052 UTC 22 September 2017)
found at http://www.aviationweather.gov/adds/metars/
 
KPAE 212345Z 2200/2224 30007KT P6SM VCSH SCT030 SCT200 
     FM220300 01004KT P6SM SCT200 
     FM221200 VRB03KT P6SM SCT150 SCT200 
     FM221700 VRB03KT P6SM SCT100 SCT200 
     FM222000 18005KT P6SM SCT100 SCT200
       
TAF AMD KPAM 212100Z 2121/2224 08009KT 9999 SCT045 QNH2992INS 
     TEMPO 2121/2123 20010G15KT 4800 -TSRA BKN025CB 
     BECMG 2123/2124 22006KT 9999 SCT035 QNH2994INS 
     BECMG 2220/2221 VRB06KT 9000 -SHRA FEW030 QNH2991INS TX32/2121Z TN23/2212Z
       
KPBF 212329Z 2200/2224 17003KT P6SM SKC 
     FM220900 00000KT 3SM BR SCT005 
     FM221400 09007KT P6SM SCT050
       
KPBG 212340Z 2200/2224 35009KT P6SM FEW250 
     FM221500 05008KT P6SM SKC
       
KPBI 212320Z 2200/2224 05010KT P6SM SCT025 SCT035 
     FM220400 VRB03KT P6SM SCT040 
     FM221400 06008KT P6SM VCSH SCT035 
     PROB30 2216/2222 TSRA BKN030CB
       
KPDK 220047Z 2201/2224 02004KT P6SM VCTS BKN060CB 
     FM220200 VRB03KT P6SM FEW060 SCT150 
     FM221800 08004KT P6SM VCSH SCT045
       
KPDT 212320Z 2200/2224 29007KT P6SM FEW050 BKN080 
     FM220600 15005KT P6SM SCT060 BKN120 
     FM221800 30005KT P6SM SCT050 BKN140
       
KPDX 212332Z 2200/2224 34004KT P6SM VCSH SCT035 BKN060 BKN100 
     FM220400 34004KT P6SM SCT040 BKN060 
     FM221200 00000KT 6SM BR SCT007 OVC015 
     FM221800 31004KT P6SM SCT020 BKN045 
     FM222100 34005KT P6SM SCT040
       
KPGA 212330Z 2200/2224 21010G25KT P6SM SCT200 
     FM220400 20010G20KT P6SM FEW060 SCT200 
     FM221800 24010G20KT P6SM FEW070
       
KPGD 212323Z 2200/2224 07007KT P6SM FEW050 
     FM220200 VRB04KT P6SM SCT250 
     FM221400 05006KT P6SM SCT025 SCT250 
     FM221800 06008KT P6SM VCTS SCT035CB
       
KPGV 212358Z 2200/2224 00000KT P6SM SKC 
     FM220400 00000KT 3SM BR SKC 
     FM220800 00000KT 2SM BR SCT005 
     TEMPO 2208/2212 1SM BR BKN005 
     FM221300 VRB04KT P6SM SCT050 AMD LTD TO CLD VIS AND WIND
       
KPHF 212320Z 2200/2224 09005KT P6SM SKC 
     FM220600 21004KT P6SM SKC 
     FM221100 28006KT P6SM SKC 
     FM222100 04005KT P6SM SCT200
       
KPHL 212323Z 2200/2306 02005KT P6SM FEW060 BKN250 
     FM221300 35009KT P6SM BKN250 
     FM230300 35005KT P6SM FEW060
       
KPHX 212329Z 2200/2306 22010G20KT P6SM SKC 
     TEMPO 2200/2202 25016G26KT 
     FM220400 27015KT P6SM SKC 
     FM221000 17006KT P6SM FEW250 
     FM221800 22007KT P6SM FEW120 BKN250 
     FM230100 28010KT P6SM SCT250
       
KPIA 212337Z 2200/2224 21006KT P6SM BKN250 
     FM220800 17006KT P6SM SCT250
       
KPIE 212323Z 2200/2224 04008KT P6SM SCT070 
     FM220200 08006KT P6SM FEW250 
     FM221400 06007KT P6SM FEW020 SCT250 
     FM221800 04009KT P6SM VCTS SCT035CB
       
KPIH 212332Z 2200/2224 08006KT P6SM -SHRA FEW009 BKN015 OVC020 
     FM220200 VRB06KT 6SM -RA BR FEW008 BKN014 OVC018 
     FM220800 22011KT P6SM -SHRA FEW010 BKN020 OVC030 
     FM221900 24012G22KT P6SM FEW020 BKN040
       
KPIR 212328Z 2123/2218 16011KT P6SM SKC 
     FM220200 05007KT P6SM FEW250 
     FM221200 12007KT P6SM BKN010 
     FM221600 17008KT P6SM SCT015 SCT150
       
KPIT 212320Z 2200/2306 VRB02KT P6SM SKC 
     FM220900 00000KT 3SM BR SKC 
     FM221300 36004KT P6SM SKC
       
KPKB 212339Z 2200/2224 12005KT P6SM BKN045 BKN080 BKN090 
     FM220600 00000KT 5SM BR SCT002 
     FM220730 00000KT 1/4SM FG VV001 
     FM221230 00000KT 3SM BR BKN002 
     FM221330 00000KT P6SM FEW050
       
KPMD 212340Z 2200/2224 30020G28KT P6SM BKN060 BKN070 
     FM220300 26015G20KT P6SM SKC 
     FM221000 26010KT P6SM SKC 
     FM222200 26015KT P6SM SKC
       
KPNA 212338Z 2200/2224 11007KT P6SM VCSH SCT070 BKN090 
     FM220200 16009KT P6SM VCSH SCT020 BKN030 
     FM220300 14007KT 6SM -RA SCT015 BKN025 
     FM221800 22013G23KT P6SM VCSH OVC040 AMD LTD TO CLD VIS AND WIND
       
KPNE 212323Z 2200/2224 03004KT P6SM FEW060 BKN250 
     FM221200 35008KT P6SM BKN250 
     FM222000 35009KT P6SM SCT060 BKN300
       
KPNS 212323Z 2200/2224 19006KT P6SM FEW030 SCT200 
     FM220200 VRB03KT P6SM SCT250 
     FM221500 07006KT P6SM SCT025 SCT250 
     FM221800 13007KT P6SM VCTS SCT030CB SCT250
       
TAF KPOB 211700Z 2117/2223 01006KT 9999 SCT045 QNH2996INS 
     BECMG 2118/2119 36009KT 8000 -SHRA BKN048 BKN120 QNH2993INS 
     TEMPO 2120/2201 VRB15G25KT 6000 -TSRA SCT025 BKN035CB 
     BECMG 2200/2201 04006KT 9999 NSW FEW015 BKN030 QNH2997INS 
     BECMG 2205/2206 VRB06KT 8000 BR FEW015 BKN030 QNH3001INS 
     BECMG 2212/2213 35006KT 9999 NSW FEW035 QNH2998INS TX32/2121Z TN19/2212Z
       
KPOU 212320Z 2200/2224 01005KT P6SM BKN250 
     FM220900 VRB03KT P6SM FEW060 BKN200 WS020/02030KT 
     FM221300 36005KT P6SM SCT060 BKN200 
     FM221600 36009KT P6SM SCT080
       
KPQI 212320Z 2200/2224 VRB02KT P6SM SKC 
     FM220600 00000KT 2SM BR SCT001 
     FM221200 10004KT P6SM SKC
       
KPRB 212340Z 2200/2224 33012G18KT P6SM SKC 
     FM220300 31010KT P6SM SKC 
     FM220800 VRB03KT P6SM SKC 
     FM222000 26006KT P6SM SKC 
     FM222300 22011KT P6SM SKC
       
KPRC 212330Z 2200/2224 19015G25KT P6SM FEW050 FEW150 
     FM220400 22010G18KT P6SM FEW040 SCT150 
     FM221800 20015G25KT P6SM FEW050
       
KPSC 212320Z 2200/2224 35004KT P6SM BKN100 BKN200 
     FM220400 VRB04KT P6SM SCT100 BKN200 
     FM221500 34005KT P6SM FEW050 SCT200
       
KPSF 212320Z 2200/2224 03005KT P6SM BKN250 
     FM220800 01006KT P6SM SCT045 BKN250 WS020/05030KT 
     FM221300 36008KT P6SM BKN045 
     FM221700 01011KT P6SM SCT050
       
KPSM 212332Z 2200/2224 01012KT P6SM OVC200 WS015/05030KT 
     FM221200 02012G20KT P6SM SCT025 BKN200
       
KPSP 212322Z 2200/2224 33014G24KT 6SM BLDU SCT090 
     FM220900 33012G20KT P6SM FEW090 
     FM221200 32007KT P6SM SKC 
     FM222000 32012G20KT P6SM FEW090
       
KPUB 212320Z 2200/2224 20013G23KT P6SM SKC 
     FM220200 21009KT P6SM SKC 
     FM220700 26006KT P6SM SKC 
     FM221400 15006KT P6SM SKC 
     FM221700 20018G28KT P6SM SCT250 
     FM222000 20025G38KT P6SM FEW090 SCT250
       
KPUW 212329Z 2200/2224 32005KT P6SM VCSH BKN035 BKN100 
     FM220200 33004KT P6SM SCT070 
     FM220600 VRB02KT P6SM SCT080 BKN200 
     FM221800 30008KT P6SM BKN060
       
KPVD 212331Z 2200/2224 02017G32KT P6SM BKN040 
     FM220500 02019G32KT P6SM VCSH OVC035 
     FM220700 01019G31KT P6SM VCSH OVC025 
     FM220900 01018G30KT P6SM BKN025 
     FM221000 01018G29KT 6SM -DZ BR VCSH BKN020 
     FM221800 01017G28KT P6SM VCSH OVC020
       
KPVU 212340Z 2200/2224 32020G32KT P6SM -SHRA SCT030 BKN050 
     FM220500 32011KT 6SM -RA SCT015 BKN030 
     FM221000 29010KT P6SM -SHRA SCT025 BKN060 
     FM222000 28012G19KT P6SM VCSH SCT040 BKN080
       
KPWM 212332Z 2200/2224 01010KT P6SM OVC200 WS015/06030KT 
     FM221200 02010G18KT P6SM SCT025 BKN200
       
KPWT 212345Z 2200/2224 04004KT P6SM FEW035 SCT060 
     FM221200 VRB03KT 4SM BR SCT005 SCT200 
     TEMPO 2213/2217 2SM BR BKN002 
     FM221700 VRB03KT P6SM SCT150 SCT200